sensor_id;sensor_type;location;lat;lon;timestamp;pressure;altitude;pressure_sealevel;temperature;humidity
35577;BME280;21680;52.400;16.920;2022-08-11T00:00:37;101667.43;;;18.17;44.27
35577;BME280;21680;52.400;16.920;2022-08-11T00:03:10;101674.88;;;18.13;44.47
35577;BME280;21680;52.400;16.920;2022-08-11T00:05:49;101670.86;;;18.05;44.72
35577;BME280;21680;52.400;16.920;2022-08-11T00:08:28;101670.64;;;18.01;44.87
35577;BME280;21680;52.400;16.920;2022-08-11T00:11:04;101674.02;;;17.97;45.09
35577;BME280;21680;52.400;16.920;2022-08-11T00:13:41;101670.30;;;17.91;45.24
35577;BME280;21680;52.400;16.920;2022-08-11T00:16:18;101667.77;;;17.88;45.41
35577;BME280;21680;52.400;16.920;2022-08-11T00:18:49;101672.02;;;17.85;45.53
35577;BME280;21680;52.400;16.920;2022-08-11T00:21:17;101672.27;;;17.80;45.72
35577;BME280;21680;52.400;16.920;2022-08-11T00:23:57;101669.83;;;17.76;45.84
35577;BME280;21680;52.400;16.920;2022-08-11T00:26:25;101664.36;;;17.69;46.10
35577;BME280;21680;52.400;16.920;2022-08-11T00:28:54;101666.76;;;17.66;46.20
35577;BME280;21680;52.400;16.920;2022-08-11T00:31:31;101669.39;;;17.59;46.38
35577;BME280;21680;52.400;16.920;2022-08-11T00:34:00;101670.61;;;17.53;46.54
35577;BME280;21680;52.400;16.920;2022-08-11T00:36:37;101665.62;;;17.46;46.78
35577;BME280;21680;52.400;16.920;2022-08-11T00:39:05;101666.75;;;17.42;47.02
35577;BME280;21680;52.400;16.920;2022-08-11T00:41:46;101668.27;;;17.39;47.32
35577;BME280;21680;52.400;16.920;2022-08-11T00:44:41;101662.68;;;17.42;47.47
35577;BME280;21680;52.400;16.920;2022-08-11T00:47:26;101661.98;;;17.38;47.59
35577;BME280;21680;52.400;16.920;2022-08-11T00:50:23;101666.12;;;17.37;47.65
35577;BME280;21680;52.400;16.920;2022-08-11T00:53:53;101658.81;;;17.30;47.90
35577;BME280;21680;52.400;16.920;2022-08-11T00:56:10;101663.70;;;17.24;48.10
35577;BME280;21680;52.400;16.920;2022-08-11T00:58:44;101662.59;;;17.19;48.35
35577;BME280;21680;52.400;16.920;2022-08-11T01:04:19;101664.82;;;17.19;48.68
35577;BME280;21680;52.400;16.920;2022-08-11T01:10:13;101663.72;;;17.15;49.07
35577;BME280;21680;52.400;16.920;2022-08-11T01:13:07;101657.98;;;17.12;49.40
35577;BME280;21680;52.400;16.920;2022-08-11T01:22:32;101660.41;;;17.01;49.78
35577;BME280;21680;52.400;16.920;2022-08-11T01:25:29;101657.30;;;17.00;50.02
35577;BME280;21680;52.400;16.920;2022-08-11T01:28:14;101656.98;;;16.98;50.21
35577;BME280;21680;52.400;16.920;2022-08-11T01:31:25;101661.70;;;16.94;50.38
35577;BME280;21680;52.400;16.920;2022-08-11T01:37:23;101663.86;;;16.87;50.83
35577;BME280;21680;52.400;16.920;2022-08-11T01:46:03;101664.89;;;16.85;51.39
35577;BME280;21680;52.400;16.920;2022-08-11T01:48:56;101660.44;;;16.84;51.52
35577;BME280;21680;52.400;16.920;2022-08-11T01:54:48;101656.85;;;16.83;51.81
35577;BME280;21680;52.400;16.920;2022-08-11T01:57:36;101655.97;;;16.83;51.96
35577;BME280;21680;52.400;16.920;2022-08-11T02:00:09;101656.53;;;16.81;52.04
35577;BME280;21680;52.400;16.920;2022-08-11T02:05:48;101653.52;;;16.78;52.48
35577;BME280;21680;52.400;16.920;2022-08-11T02:08:48;101658.84;;;16.80;52.64
35577;BME280;21680;52.400;16.920;2022-08-11T02:11:30;101652.80;;;16.75;52.66
35577;BME280;21680;52.400;16.920;2022-08-11T02:14:23;101655.59;;;16.73;52.70
35577;BME280;21680;52.400;16.920;2022-08-11T02:17:10;101658.69;;;16.74;52.90
35577;BME280;21680;52.400;16.920;2022-08-11T02:19:54;101655.27;;;16.71;53.08
35577;BME280;21680;52.400;16.920;2022-08-11T02:23:00;101656.46;;;16.74;53.21
35577;BME280;21680;52.400;16.920;2022-08-11T02:25:49;101650.97;;;16.75;53.36
35577;BME280;21680;52.400;16.920;2022-08-11T02:28:46;101643.80;;;16.74;53.43
35577;BME280;21680;52.400;16.920;2022-08-11T02:34:48;101646.59;;;16.73;53.70
35577;BME280;21680;52.400;16.920;2022-08-11T02:40:10;101649.22;;;16.66;53.96
35577;BME280;21680;52.400;16.920;2022-08-11T02:43:04;101647.00;;;16.65;54.26
35577;BME280;21680;52.400;16.920;2022-08-11T02:45:46;101654.45;;;16.60;54.26
35577;BME280;21680;52.400;16.920;2022-08-11T02:54:43;101655.09;;;16.56;54.58
35577;BME280;21680;52.400;16.920;2022-08-11T02:57:43;101656.59;;;16.53;54.76
35577;BME280;21680;52.400;16.920;2022-08-11T03:00:18;101658.35;;;16.54;54.99
35577;BME280;21680;52.400;16.920;2022-08-11T03:11:41;101662.97;;;16.52;55.36
35577;BME280;21680;52.400;16.920;2022-08-11T03:14:46;101660.50;;;16.48;55.55
35577;BME280;21680;52.400;16.920;2022-08-11T03:17:50;101661.84;;;16.39;55.93
35577;BME280;21680;52.400;16.920;2022-08-11T03:20:41;101661.84;;;16.39;55.93
35577;BME280;21680;52.400;16.920;2022-08-11T03:23:30;101663.28;;;16.38;56.02
35577;BME280;21680;52.400;16.920;2022-08-11T03:26:10;101665.66;;;16.35;56.21
35577;BME280;21680;52.400;16.920;2022-08-11T03:34:25;101673.06;;;16.32;56.57
35577;BME280;21680;52.400;16.920;2022-08-11T03:45:24;101677.11;;;16.23;57.19
35577;BME280;21680;52.400;16.920;2022-08-11T03:48:24;101676.31;;;16.21;57.40
35577;BME280;21680;52.400;16.920;2022-08-11T03:51:21;101671.78;;;16.21;57.54
35577;BME280;21680;52.400;16.920;2022-08-11T03:54:15;101677.11;;;16.23;57.73
35577;BME280;21680;52.400;16.920;2022-08-11T03:59:53;101684.91;;;16.20;57.95
35577;BME280;21680;52.400;16.920;2022-08-11T04:02:44;101688.08;;;16.20;58.15
35577;BME280;21680;52.400;16.920;2022-08-11T04:05:46;101677.27;;;16.20;58.31
35577;BME280;21680;52.400;16.920;2022-08-11T04:11:09;101672.96;;;16.16;58.57
35577;BME280;21680;52.400;16.920;2022-08-11T04:20:28;101672.41;;;16.18;58.99
35577;BME280;21680;52.400;16.920;2022-08-11T04:29:39;101688.14;;;16.10;59.53
35577;BME280;21680;52.400;16.920;2022-08-11T04:32:30;101679.62;;;16.09;59.67
35577;BME280;21680;52.400;16.920;2022-08-11T04:35:22;101684.09;;;16.10;59.72
35577;BME280;21680;52.400;16.920;2022-08-11T04:47:09;101687.02;;;16.05;60.24
35577;BME280;21680;52.400;16.920;2022-08-11T04:50:28;101687.02;;;16.05;60.43
35577;BME280;21680;52.400;16.920;2022-08-11T04:53:41;101687.97;;;16.04;60.55
35577;BME280;21680;52.400;16.920;2022-08-11T04:56:30;101690.52;;;16.07;60.72
35577;BME280;21680;52.400;16.920;2022-08-11T04:59:35;101688.30;;;16.07;60.84
35577;BME280;21680;52.400;16.920;2022-08-11T05:03:28;101688.14;;;16.10;61.05
35577;BME280;21680;52.400;16.920;2022-08-11T05:08:39;101695.72;;;16.20;61.31
35577;BME280;21680;52.400;16.920;2022-08-11T05:11:21;101685.95;;;16.27;61.36
35577;BME280;21680;52.400;16.920;2022-08-11T05:13:51;101680.77;;;16.22;61.53
35577;BME280;21680;52.400;16.920;2022-08-11T05:16:53;101688.34;;;16.33;61.63
35577;BME280;21680;52.400;16.920;2022-08-11T05:19:36;101685.96;;;16.35;61.68
35577;BME280;21680;52.400;16.920;2022-08-11T05:22:25;101690.91;;;16.44;61.75
35577;BME280;21680;52.400;16.920;2022-08-11T05:25:19;101692.50;;;16.48;61.81
35577;BME280;21680;52.400;16.920;2022-08-11T05:28:14;101693.14;;;16.53;61.78
35577;BME280;21680;52.400;16.920;2022-08-11T05:31:09;101691.63;;;16.56;61.87
35577;BME280;21680;52.400;16.920;2022-08-11T05:34:04;101692.82;;;16.60;61.98
35577;BME280;21680;52.400;16.920;2022-08-11T05:37:00;101696.88;;;16.60;62.04
35577;BME280;21680;52.400;16.920;2022-08-11T05:39:56;101693.02;;;16.65;62.15
35577;BME280;21680;52.400;16.920;2022-08-11T05:42:31;101695.88;;;16.71;62.13
35577;BME280;21680;52.400;16.920;2022-08-11T05:45:18;101695.08;;;16.77;62.26
35577;BME280;21680;52.400;16.920;2022-08-11T05:48:03;101689.74;;;16.84;62.22
35577;BME280;21680;52.400;16.920;2022-08-11T05:50:52;101686.79;;;16.89;62.29
35577;BME280;21680;52.400;16.920;2022-08-11T05:53:54;101691.32;;;16.97;62.29
35577;BME280;21680;52.400;16.920;2022-08-11T05:56:42;101694.89;;;17.06;62.31
35577;BME280;21680;52.400;16.920;2022-08-11T05:59:17;101699.42;;;17.14;62.27
35577;BME280;21680;52.400;16.920;2022-08-11T06:01:45;101693.19;;;17.21;62.26
35577;BME280;21680;52.400;16.920;2022-08-11T06:04:20;101693.56;;;17.31;62.22
35577;BME280;21680;52.400;16.920;2022-08-11T06:06:56;101701.27;;;17.38;62.23
35577;BME280;21680;52.400;16.920;2022-08-11T06:09:32;101703.00;;;17.48;62.18
35577;BME280;21680;52.400;16.920;2022-08-11T06:12:15;101695.31;;;17.56;62.14
35577;BME280;21680;52.400;16.920;2022-08-11T06:14:44;101701.19;;;17.64;62.05
35577;BME280;21680;52.400;16.920;2022-08-11T06:17:11;101698.47;;;17.73;62.00
35577;BME280;21680;52.400;16.920;2022-08-11T06:19:40;101694.93;;;17.79;61.94
35577;BME280;21680;52.400;16.920;2022-08-11T06:22:09;101702.63;;;17.87;61.90
35577;BME280;21680;52.400;16.920;2022-08-11T06:24:41;101697.34;;;17.93;61.87
35577;BME280;21680;52.400;16.920;2022-08-11T06:27:17;101701.45;;;18.00;61.82
35577;BME280;21680;52.400;16.920;2022-08-11T06:29:48;101702.27;;;18.09;61.75
35577;BME280;21680;52.400;16.920;2022-08-11T06:32:16;101698.06;;;18.19;61.68
35577;BME280;21680;52.400;16.920;2022-08-11T06:35:00;101704.28;;;18.28;61.58
35577;BME280;21680;52.400;16.920;2022-08-11T06:43:23;101698.38;;;18.59;61.31
35577;BME280;21680;52.400;16.920;2022-08-11T06:46:00;101698.25;;;18.69;61.25
35577;BME280;21680;52.400;16.920;2022-08-11T06:48:32;101696.83;;;18.77;61.11
35577;BME280;21680;52.400;16.920;2022-08-11T06:51:03;101693.94;;;18.88;61.05
35577;BME280;21680;52.400;16.920;2022-08-11T06:53:46;101683.86;;;18.97;60.93
35577;BME280;21680;52.400;16.920;2022-08-11T06:56:31;101689.59;;;19.06;60.86
35577;BME280;21680;52.400;16.920;2022-08-11T06:59:10;101685.73;;;19.18;60.75
35577;BME280;21680;52.400;16.920;2022-08-11T07:02:14;101680.87;;;19.30;60.59
35577;BME280;21680;52.400;16.920;2022-08-11T07:05:01;101685.73;;;19.39;60.49
35577;BME280;21680;52.400;16.920;2022-08-11T07:08:05;101685.37;;;19.52;60.38
35577;BME280;21680;52.400;16.920;2022-08-11T07:11:03;101682.83;;;19.63;60.20
35577;BME280;21680;52.400;16.920;2022-08-11T07:14:06;101686.70;;;19.73;59.94
35577;BME280;21680;52.400;16.920;2022-08-11T07:16:38;101681.63;;;19.82;59.72
35577;BME280;21680;52.400;16.920;2022-08-11T07:19:07;101681.52;;;19.90;59.56
35577;BME280;21680;52.400;16.920;2022-08-11T07:21:54;101679.06;;;20.00;59.39
35577;BME280;21680;52.400;16.920;2022-08-11T07:24:43;101674.85;;;20.08;59.19
35577;BME280;21680;52.400;16.920;2022-08-11T07:27:35;101674.34;;;20.16;58.94
35577;BME280;21680;52.400;16.920;2022-08-11T07:30:20;101675.36;;;20.28;58.79
35577;BME280;21680;52.400;16.920;2022-08-11T07:32:49;101674.25;;;20.37;58.52
35577;BME280;21680;52.400;16.920;2022-08-11T07:35:20;101670.16;;;20.45;58.33
35577;BME280;21680;52.400;16.920;2022-08-11T07:37:52;101672.36;;;20.52;58.11
35577;BME280;21680;52.400;16.920;2022-08-11T07:40:22;101675.71;;;20.63;57.95
35577;BME280;21680;52.400;16.920;2022-08-11T07:42:51;101679.05;;;20.73;57.70
35577;BME280;21680;52.400;16.920;2022-08-11T07:45:19;101676.80;;;20.86;57.53
35577;BME280;21680;52.400;16.920;2022-08-11T07:47:51;101669.23;;;20.96;57.18
35577;BME280;21680;52.400;16.920;2022-08-11T07:50:42;101680.36;;;21.06;56.85
35577;BME280;21680;52.400;16.920;2022-08-11T07:53:28;101678.13;;;21.18;56.43
35577;BME280;21680;52.400;16.920;2022-08-11T07:55:57;101676.79;;;21.31;55.97
35577;BME280;21680;52.400;16.920;2022-08-11T07:58:25;101669.80;;;21.39;55.63
35577;BME280;21680;52.400;16.920;2022-08-11T08:01:11;101646.73;;;21.38;55.13
35577;BME280;21680;52.400;16.920;2022-08-11T08:04:08;101640.33;;;21.45;54.94
35577;BME280;21680;52.400;16.920;2022-08-11T08:06:55;101660.36;;;21.69;54.73
35577;BME280;21680;52.400;16.920;2022-08-11T08:09:42;101661.45;;;21.85;54.21
35577;BME280;21680;52.400;16.920;2022-08-11T08:12:28;101658.69;;;21.97;53.92
35577;BME280;21680;52.400;16.920;2022-08-11T08:15:15;101657.15;;;22.06;53.51
35577;BME280;21680;52.400;16.920;2022-08-11T08:18:02;101649.72;;;22.08;53.26
35577;BME280;21680;52.400;16.920;2022-08-11T08:23:03;101651.52;;;22.20;52.74
35577;BME280;21680;52.400;16.920;2022-08-11T08:25:33;101648.95;;;22.30;52.75
35577;BME280;21680;52.400;16.920;2022-08-11T08:28:06;101648.03;;;22.48;52.14
35577;BME280;21680;52.400;16.920;2022-08-11T08:30:34;101654.78;;;22.60;51.84
35577;BME280;21680;52.400;16.920;2022-08-11T08:33:23;101652.20;;;22.70;51.52
35577;BME280;21680;52.400;16.920;2022-08-11T08:35:56;101647.55;;;22.83;51.16
35577;BME280;21680;52.400;16.920;2022-08-11T08:38:42;101645.83;;;22.93;50.80
35577;BME280;21680;52.400;16.920;2022-08-11T08:41:14;101646.70;;;22.99;50.44
35577;BME280;21680;52.400;16.920;2022-08-11T08:43:47;101650.56;;;23.08;50.11
35577;BME280;21680;52.400;16.920;2022-08-11T08:46:20;101651.70;;;23.17;49.80
35577;BME280;21680;52.400;16.920;2022-08-11T08:48:48;101649.21;;;23.25;49.15
35577;BME280;21680;52.400;16.920;2022-08-11T08:51:16;101647.22;;;23.27;48.94
35577;BME280;21680;52.400;16.920;2022-08-11T08:54:08;101650.09;;;23.31;48.85
35577;BME280;21680;52.400;16.920;2022-08-11T08:56:39;101642.71;;;23.48;48.46
35577;BME280;21680;52.400;16.920;2022-08-11T08:59:06;101638.88;;;23.56;48.20
35577;BME280;21680;52.400;16.920;2022-08-11T09:01:48;101640.24;;;23.62;47.88
35577;BME280;21680;52.400;16.920;2022-08-11T09:04:13;101629.04;;;23.65;47.69
35577;BME280;21680;52.400;16.920;2022-08-11T09:06:40;101628.91;;;23.72;47.47
35577;BME280;21680;52.400;16.920;2022-08-11T09:09:10;101630.62;;;23.84;47.19
35577;BME280;21680;52.400;16.920;2022-08-11T09:11:37;101620.01;;;23.96;46.95
35577;BME280;21680;52.400;16.920;2022-08-11T09:14:25;101626.19;;;24.10;46.69
35577;BME280;21680;52.400;16.920;2022-08-11T09:16:57;101618.32;;;24.16;45.76
35577;BME280;21680;52.400;16.920;2022-08-11T09:19:25;101620.69;;;24.15;45.33
35577;BME280;21680;52.400;16.920;2022-08-11T09:21:51;101617.08;;;24.15;45.24
35577;BME280;21680;52.400;16.920;2022-08-11T09:24:37;101619.80;;;24.20;45.09
35577;BME280;21680;52.400;16.920;2022-08-11T09:27:23;101629.49;;;24.24;44.85
35577;BME280;21680;52.400;16.920;2022-08-11T09:29:50;101621.78;;;24.30;44.69
35577;BME280;21680;52.400;16.920;2022-08-11T09:32:20;101622.37;;;24.39;44.52
35577;BME280;21680;52.400;16.920;2022-08-11T09:34:49;101631.64;;;24.53;44.35
35577;BME280;21680;52.400;16.920;2022-08-11T09:37:16;101616.90;;;24.59;43.97
35577;BME280;21680;52.400;16.920;2022-08-11T09:40:02;101614.96;;;24.71;43.91
35577;BME280;21680;52.400;16.920;2022-08-11T09:42:48;101617.83;;;24.90;43.74
35577;BME280;21680;52.400;16.920;2022-08-11T09:45:34;101611.84;;;25.12;43.51
35577;BME280;21680;52.400;16.920;2022-08-11T09:48:04;101608.45;;;25.29;43.21
35577;BME280;21680;52.400;16.920;2022-08-11T09:50:33;101601.56;;;25.44;42.97
35577;BME280;21680;52.400;16.920;2022-08-11T09:52:59;101605.58;;;25.55;42.38
35577;BME280;21680;52.400;16.920;2022-08-11T09:55:27;101602.91;;;25.60;42.04
35577;BME280;21680;52.400;16.920;2022-08-11T09:57:53;101611.80;;;25.58;41.79
35577;BME280;21680;52.400;16.920;2022-08-11T10:00:38;101600.00;;;25.67;41.63
35577;BME280;21680;52.400;16.920;2022-08-11T10:03:14;101598.07;;;25.73;41.32
35577;BME280;21680;52.400;16.920;2022-08-11T10:05:47;101597.72;;;25.81;41.03
35577;BME280;21680;52.400;16.920;2022-08-11T10:08:36;101589.64;;;25.90;40.78
35577;BME280;21680;52.400;16.920;2022-08-11T10:11:05;101591.94;;;26.04;40.50
35577;BME280;21680;52.400;16.920;2022-08-11T10:13:36;101592.81;;;26.14;40.13
35577;BME280;21680;52.400;16.920;2022-08-11T10:16:09;101587.96;;;26.21;40.00
35577;BME280;21680;52.400;16.920;2022-08-11T10:18:39;101586.23;;;26.20;39.74
35577;BME280;21680;52.400;16.920;2022-08-11T10:24:11;101586.18;;;26.36;39.50
35577;BME280;21680;52.400;16.920;2022-08-11T10:26:56;101576.19;;;26.44;39.28
35577;BME280;21680;52.400;16.920;2022-08-11T10:29:30;101568.71;;;26.60;38.99
35577;BME280;21680;52.400;16.920;2022-08-11T10:32:24;101572.78;;;26.79;38.94
35577;BME280;21680;52.400;16.920;2022-08-11T10:35:10;101562.89;;;27.06;38.66
35577;BME280;21680;52.400;16.920;2022-08-11T10:37:40;101567.28;;;27.26;38.48
35577;BME280;21680;52.400;16.920;2022-08-11T10:40:09;101563.16;;;27.40;38.31
35577;BME280;21680;52.400;16.920;2022-08-11T10:42:40;101565.50;;;27.48;37.96
35577;BME280;21680;52.400;16.920;2022-08-11T10:45:25;101553.06;;;27.44;37.76
35577;BME280;21680;52.400;16.920;2022-08-11T10:48:11;101552.60;;;27.35;37.49
35577;BME280;21680;52.400;16.920;2022-08-11T10:50:37;101564.02;;;27.27;37.44
35577;BME280;21680;52.400;16.920;2022-08-11T10:53:22;101558.36;;;27.14;37.09
35577;BME280;21680;52.400;16.920;2022-08-11T10:56:08;101557.12;;;26.99;37.02
35577;BME280;21680;52.400;16.920;2022-08-11T10:58:55;101551.31;;;26.93;36.91
35577;BME280;21680;52.400;16.920;2022-08-11T11:01:27;101550.90;;;26.88;36.80
35577;BME280;21680;52.400;16.920;2022-08-11T11:04:00;101543.06;;;26.69;36.58
35577;BME280;21680;52.400;16.920;2022-08-11T11:06:53;101536.81;;;26.53;36.54
35577;BME280;21680;52.400;16.920;2022-08-11T11:09:38;101535.59;;;26.52;36.63
35577;BME280;21680;52.400;16.920;2022-08-11T11:12:16;101532.45;;;26.61;36.57
35577;BME280;21680;52.400;16.920;2022-08-11T11:15:16;101527.61;;;26.82;36.55
35577;BME280;21680;52.400;16.920;2022-08-11T11:18:11;101519.88;;;27.05;36.42
35577;BME280;21680;52.400;16.920;2022-08-11T11:23:32;101516.52;;;27.11;35.79
35577;BME280;21680;52.400;16.920;2022-08-11T11:32:06;101514.42;;;27.09;35.77
35577;BME280;21680;52.400;16.920;2022-08-11T11:35:00;101513.96;;;27.27;35.53
35577;BME280;21680;52.400;16.920;2022-08-11T11:37:24;101514.47;;;27.40;35.46
35577;BME280;21680;52.400;16.920;2022-08-11T11:39:53;101512.61;;;27.72;35.36
35577;BME280;21680;52.400;16.920;2022-08-11T11:42:20;101509.81;;;27.86;34.82
35577;BME280;21680;52.400;16.920;2022-08-11T11:44:48;101512.84;;;27.79;34.55
35577;BME280;21680;52.400;16.920;2022-08-11T11:47:15;101508.95;;;27.86;34.50
35577;BME280;21680;52.400;16.920;2022-08-11T11:49:44;101502.72;;;28.01;34.38
35577;BME280;21680;52.400;16.920;2022-08-11T11:52:15;101508.14;;;28.11;34.12
35577;BME280;21680;52.400;16.920;2022-08-11T11:54:45;101502.50;;;28.17;33.77
35577;BME280;21680;52.400;16.920;2022-08-11T11:57:13;101507.09;;;28.26;33.76
35577;BME280;21680;52.400;16.920;2022-08-11T12:00:00;101507.30;;;28.54;33.78
35577;BME280;21680;52.400;16.920;2022-08-11T12:02:50;101502.66;;;28.85;33.38
35577;BME280;21680;52.400;16.920;2022-08-11T12:05:17;101506.50;;;28.96;33.31
35577;BME280;21680;52.400;16.920;2022-08-11T12:07:44;101499.82;;;29.06;32.80
35577;BME280;21680;52.400;16.920;2022-08-11T12:10:30;101495.44;;;28.92;32.75
35577;BME280;21680;52.400;16.920;2022-08-11T12:12:58;101495.00;;;29.08;32.68
35577;BME280;21680;52.400;16.920;2022-08-11T12:15:45;101493.02;;;29.31;32.45
35577;BME280;21680;52.400;16.920;2022-08-11T12:18:13;101494.03;;;29.26;32.03
35577;BME280;21680;52.400;16.920;2022-08-11T12:20:42;101488.39;;;28.97;31.99
35577;BME280;21680;52.400;16.920;2022-08-11T12:23:10;101487.23;;;28.78;31.81
35577;BME280;21680;52.400;16.920;2022-08-11T12:25:57;101482.72;;;28.73;31.89
35577;BME280;21680;52.400;16.920;2022-08-11T12:28:43;101479.48;;;28.82;31.75
35577;BME280;21680;52.400;16.920;2022-08-11T12:31:10;101476.03;;;28.80;31.63
35577;BME280;21680;52.400;16.920;2022-08-11T12:33:39;101470.73;;;28.52;31.32
35577;BME280;21680;52.400;16.920;2022-08-11T12:36:08;101465.88;;;28.46;31.40
35577;BME280;21680;52.400;16.920;2022-08-11T12:38:37;101459.04;;;28.62;31.50
35577;BME280;21680;52.400;16.920;2022-08-11T12:41:03;101452.38;;;28.73;31.34
35577;BME280;21680;52.400;16.920;2022-08-11T12:43:48;101454.41;;;28.67;31.32
35577;BME280;21680;52.400;16.920;2022-08-11T12:46:35;101449.57;;;28.65;31.29
35577;BME280;21680;52.400;16.920;2022-08-11T12:49:18;101445.66;;;28.75;31.37
35577;BME280;21680;52.400;16.920;2022-08-11T12:52:09;101449.20;;;28.90;31.21
35577;BME280;21680;52.400;16.920;2022-08-11T12:57:36;101432.03;;;29.12;30.91
35577;BME280;21680;52.400;16.920;2022-08-11T13:00:23;101434.66;;;29.22;30.76
35577;BME280;21680;52.400;16.920;2022-08-11T13:03:11;101427.61;;;29.39;30.58
35577;BME280;21680;52.400;16.920;2022-08-11T13:05:58;101434.77;;;29.75;30.37
35577;BME280;21680;52.400;16.920;2022-08-11T13:08:28;101430.11;;;30.16;30.26
35577;BME280;21680;52.400;16.920;2022-08-11T13:10:58;101424.34;;;30.50;29.83
35577;BME280;21680;52.400;16.920;2022-08-11T13:13:46;101427.97;;;30.58;29.30
35577;BME280;21680;52.400;16.920;2022-08-11T13:16:15;101431.77;;;30.49;28.93
35577;BME280;21680;52.400;16.920;2022-08-11T13:18:43;101424.56;;;30.28;28.78
35577;BME280;21680;52.400;16.920;2022-08-11T13:21:12;101429.76;;;29.90;28.47
35577;BME280;21680;52.400;16.920;2022-08-11T13:23:40;101420.88;;;29.34;28.55
35577;BME280;21680;52.400;16.920;2022-08-11T13:26:07;101413.22;;;29.12;28.83
35577;BME280;21680;52.400;16.920;2022-08-11T13:28:36;101419.06;;;29.00;28.93
35577;BME280;21680;52.400;16.920;2022-08-11T13:31:03;101419.55;;;28.92;29.01
35577;BME280;21680;52.400;16.920;2022-08-11T13:33:46;101410.78;;;29.00;29.01
35577;BME280;21680;52.400;16.920;2022-08-11T13:36:11;101400.55;;;28.85;28.88
35577;BME280;21680;52.400;16.920;2022-08-11T13:38:39;101409.07;;;29.07;29.22
35577;BME280;21680;52.400;16.920;2022-08-11T13:41:07;101403.33;;;29.59;28.98
35577;BME280;21680;52.400;16.920;2022-08-11T13:43:53;101398.32;;;29.83;28.79
35577;BME280;21680;52.400;16.920;2022-08-11T13:46:22;101396.25;;;30.10;28.77
35577;BME280;21680;52.400;16.920;2022-08-11T13:48:53;101386.37;;;30.23;28.21
35577;BME280;21680;52.400;16.920;2022-08-11T13:51:22;101377.45;;;30.56;28.51
35577;BME280;21680;52.400;16.920;2022-08-11T13:53:57;101373.80;;;31.03;28.39
35577;BME280;21680;52.400;16.920;2022-08-11T13:56:32;101369.63;;;31.30;27.81
35577;BME280;21680;52.400;16.920;2022-08-11T13:59:02;101365.25;;;31.58;27.68
35577;BME280;21680;52.400;16.920;2022-08-11T14:01:32;101363.41;;;31.51;27.37
35577;BME280;21680;52.400;16.920;2022-08-11T14:04:07;101367.43;;;31.71;27.47
35577;BME280;21680;52.400;16.920;2022-08-11T14:06:40;101356.60;;;31.80;27.12
35577;BME280;21680;52.400;16.920;2022-08-11T14:09:07;101358.03;;;32.10;27.29
35577;BME280;21680;52.400;16.920;2022-08-11T14:11:35;101354.44;;;32.53;27.06
35577;BME280;21680;52.400;16.920;2022-08-11T14:14:22;101344.53;;;32.95;26.95
35577;BME280;21680;52.400;16.920;2022-08-11T14:16:53;101347.23;;;33.46;26.88
35577;BME280;21680;52.400;16.920;2022-08-11T14:19:21;101349.80;;;33.69;26.49
35577;BME280;21680;52.400;16.920;2022-08-11T14:21:50;101357.80;;;33.78;26.16
35577;BME280;21680;52.400;16.920;2022-08-11T14:24:43;101348.59;;;33.24;26.12
35577;BME280;21680;52.400;16.920;2022-08-11T14:27:16;101350.22;;;32.57;25.96
35577;BME280;21680;52.400;16.920;2022-08-11T14:29:43;101357.58;;;31.87;25.99
35577;BME280;21680;52.400;16.920;2022-08-11T14:32:13;101356.80;;;31.33;25.90
35577;BME280;21680;52.400;16.920;2022-08-11T14:34:42;101351.22;;;30.87;26.08
35577;BME280;21680;52.400;16.920;2022-08-11T14:37:11;101352.88;;;30.65;26.07
35577;BME280;21680;52.400;16.920;2022-08-11T14:39:45;101355.70;;;30.45;26.11
35577;BME280;21680;52.400;16.920;2022-08-11T14:42:12;101361.20;;;30.61;26.22
35577;BME280;21680;52.400;16.920;2022-08-11T14:45:01;101353.75;;;30.66;26.19
35577;BME280;21680;52.400;16.920;2022-08-11T14:47:53;101351.68;;;30.64;25.83
35577;BME280;21680;52.400;16.920;2022-08-11T14:50:22;101357.05;;;30.96;26.23
35577;BME280;21680;52.400;16.920;2022-08-11T14:53:01;101350.45;;;31.24;25.82
35577;BME280;21680;52.400;16.920;2022-08-11T14:55:34;101346.48;;;31.46;25.78
35577;BME280;21680;52.400;16.920;2022-08-11T14:58:20;101351.14;;;31.68;25.70
35577;BME280;21680;52.400;16.920;2022-08-11T15:00:54;101345.81;;;31.85;25.37
35577;BME280;21680;52.400;16.920;2022-08-11T15:03:23;101349.61;;;32.03;25.29
35577;BME280;21680;52.400;16.920;2022-08-11T15:05:52;101349.70;;;32.43;25.43
35577;BME280;21680;52.400;16.920;2022-08-11T15:08:22;101336.90;;;32.68;25.04
35577;BME280;21680;52.400;16.920;2022-08-11T15:10:52;101344.89;;;32.67;25.21
35577;BME280;21680;52.400;16.920;2022-08-11T15:13:19;101345.84;;;32.74;24.83
35577;BME280;21680;52.400;16.920;2022-08-11T15:15:46;101332.88;;;31.96;24.56
35577;BME280;21680;52.400;16.920;2022-08-11T15:18:31;101341.21;;;31.55;24.70
35577;BME280;21680;52.400;16.920;2022-08-11T15:20:58;101334.20;;;31.21;24.85
35577;BME280;21680;52.400;16.920;2022-08-11T15:23:42;101338.59;;;30.85;24.71
35577;BME280;21680;52.400;16.920;2022-08-11T15:26:37;101345.94;;;30.18;24.77
35577;BME280;21680;52.400;16.920;2022-08-11T15:29:24;101336.33;;;29.65;24.99
35577;BME280;21680;52.400;16.920;2022-08-11T15:32:11;101336.47;;;29.35;25.22
35577;BME280;21680;52.400;16.920;2022-08-11T15:34:59;101332.81;;;29.11;25.48
35577;BME280;21680;52.400;16.920;2022-08-11T15:37:46;101338.70;;;29.20;25.78
35577;BME280;21680;52.400;16.920;2022-08-11T15:40:20;101339.92;;;29.86;25.87